Archival Weather

Southern Wisconsin Rgnl

Janesville, Wisconsin (KJVL)

Report from: Tuesday, June 6, 2023 10:35 PM CDT
Current time: Wednesday, December 6, 2023 1:52 AM CST

Current weather – Weather history – Daily summaries
Weather forecast

Temperature18.0°C (64.4°F)
Dew point4.0°C (39.2°F)
Winds 4 kts (2.1 m/s, 4.6 mph) East-Northeast (70°)
Visibility10 mi. (16.1 km)
Clouds Scattered clouds 3,700 ft. (1,128 m)
Ceiling: Overcast 6,500 ft. (1,981 m)
Altimeter29.94 in.Hg (1014 mB)
Relative humidity39 %
Density altitude453 ft. (138 m)
Remarks Fully automated report
Automated weather observing station with precipitation discriminator
Flight conditions Visual Meteorological Conditions
Raw dataKJVL 070335Z AUTO 07004KT 10SM SCT037 OVC065 18/04 A2994 RMK AO2
An error has occurred. This application may no longer respond until reloaded. Reload 🗙